createdAt,value
2023-03-19T00:01:13.287Z,100219.84
2023-03-19T00:05:15.396Z,100219.59
2023-03-19T00:09:17.944Z,100231.59
2023-03-19T00:13:20.061Z,100234.06
2023-03-19T00:17:21.872Z,100243.59
2023-03-19T00:21:25.881Z,100258.03
2023-03-19T00:25:27.879Z,100240.88
2023-03-19T00:29:29.504Z,100238.06
2023-03-19T00:33:31.373Z,100236.16
2023-03-19T00:37:33.548Z,100241.31
2023-03-19T00:41:35.255Z,100216.44
2023-03-19T00:45:36.936Z,100214.56
2023-03-19T00:49:38.473Z,100236.03
2023-03-19T00:53:42.318Z,100260.81
2023-03-19T00:57:44.198Z,100256.31
2023-03-19T01:01:45.785Z,100271.47
2023-03-19T01:09:50.934Z,100266.81
2023-03-19T01:13:52.454Z,100263.34
2023-03-19T01:17:54.034Z,100274.41
2023-03-19T01:21:55.849Z,100269.19
2023-03-19T01:25:58.428Z,100263.00
2023-03-19T01:30:02.105Z,100246.47
2023-03-19T01:34:22.985Z,100233.59
2023-03-19T01:38:29.376Z,100255.31
2023-03-19T01:43:12.481Z,100250.38
2023-03-19T01:47:43.504Z,100256.38
2023-03-19T01:51:47.169Z,100262.19
2023-03-19T01:56:19.736Z,100277.22
2023-03-19T02:00:47.782Z,100286.34
2023-03-19T02:04:53.690Z,100287.75
2023-03-19T02:08:56.585Z,100282.56
2023-03-19T02:12:58.586Z,100285.81
2023-03-19T02:17:00.713Z,100282.25
2023-03-19T02:21:09.814Z,100286.47
2023-03-19T02:25:17.196Z,100285.69
2023-03-19T02:29:20.996Z,100290.22
2023-03-19T02:33:23.351Z,100290.09
2023-03-19T02:37:32.861Z,100279.78
2023-03-19T02:41:37.417Z,100277.25
2023-03-19T02:45:39.622Z,100295.31
2023-03-19T02:49:41.331Z,100299.75
2023-03-19T02:53:42.840Z,100300.59
2023-03-19T02:57:46.274Z,100292.19
2023-03-19T03:01:47.960Z,100294.06
2023-03-19T03:05:49.629Z,100289.91
2023-03-19T03:09:51.431Z,100289.22
2023-03-19T03:13:52.976Z,100291.09
2023-03-19T03:17:56.327Z,100293.53
2023-03-19T03:21:57.946Z,100302.91
2023-03-19T03:25:59.499Z,100297.84
2023-03-19T03:30:01.347Z,100313.34
2023-03-19T03:34:02.930Z,100315.75
2023-03-19T03:38:06.675Z,100308.91
2023-03-19T03:42:40.168Z,100311.31
2023-03-19T03:46:43.437Z,100320.56
2023-03-19T03:50:45.815Z,100317.16
2023-03-19T03:54:51.610Z,100314.59
2023-03-19T03:58:53.297Z,100315.53
2023-03-19T04:02:54.930Z,100318.25
2023-03-19T04:06:56.660Z,100319.91
2023-03-19T04:11:14.432Z,100327.53
2023-03-19T04:15:16.784Z,100333.56
2023-03-19T04:19:20.964Z,100326.72
2023-03-19T04:23:22.653Z,100336.16
2023-03-19T04:27:24.199Z,100335.31
2023-03-19T04:31:25.948Z,100340.56
2023-03-19T04:35:27.818Z,100345.75
2023-03-19T04:39:29.399Z,100340.75
2023-03-19T04:43:32.719Z,100349.38
2023-03-19T04:47:37.032Z,100345.97
2023-03-19T04:51:39.238Z,100353.66
2023-03-19T04:55:42.376Z,100350.94
2023-03-19T04:59:50.657Z,100349.13
2023-03-19T05:03:54.354Z,100361.19
2023-03-19T05:07:57.368Z,100350.94
2023-03-19T05:11:59.816Z,100356.16
2023-03-19T05:16:02.585Z,100350.06
2023-03-19T05:20:06.205Z,100354.34
2023-03-19T05:24:10.313Z,100353.47
2023-03-19T05:28:13.541Z,100361.28
2023-03-19T05:32:16.055Z,100355.31
2023-03-19T05:36:19.046Z,100359.47
2023-03-19T05:40:41.847Z,100360.25
2023-03-19T05:44:55.412Z,100372.31
2023-03-19T05:49:00.700Z,100376.69
2023-03-19T05:53:03.335Z,100382.69
2023-03-19T05:57:07.606Z,100382.75
2023-03-19T06:01:09.289Z,100393.84
2023-03-19T06:05:11.634Z,100391.31
2023-03-19T06:09:14.043Z,100393.06
2023-03-19T06:13:18.139Z,100397.31
2023-03-19T06:17:33.344Z,100397.06
2023-03-19T06:21:41.445Z,100409.75
2023-03-19T06:25:43.237Z,100407.09
2023-03-19T06:29:46.624Z,100411.34
2023-03-19T06:33:55.653Z,100408.13
2023-03-19T06:38:00.675Z,100403.97
2023-03-19T06:42:02.304Z,100415.22
2023-03-19T06:46:04.975Z,100417.94
2023-03-19T06:50:07.024Z,100417.53
2023-03-19T06:54:08.776Z,100422.28
2023-03-19T06:58:10.687Z,100422.59
2023-03-19T07:02:12.540Z,100428.00
2023-03-19T07:06:14.124Z,100435.16
2023-03-19T07:10:19.268Z,100440.50
2023-03-19T07:14:20.862Z,100448.88
2023-03-19T07:18:22.350Z,100448.72
2023-03-19T07:22:23.962Z,100445.97
2023-03-19T07:26:25.747Z,100444.13
2023-03-19T07:30:27.335Z,100444.00
2023-03-19T07:34:28.875Z,100447.34
2023-03-19T07:38:30.526Z,100453.56
2023-03-19T07:42:32.145Z,100455.47
2023-03-19T07:46:33.801Z,100457.44
2023-03-19T07:50:35.869Z,100464.50
2023-03-19T07:54:37.630Z,100455.91
2023-03-19T07:58:39.141Z,100455.06
2023-03-19T08:02:42.751Z,100454.78
2023-03-19T08:06:44.545Z,100443.94
2023-03-19T08:10:47.901Z,100448.81
2023-03-19T08:14:49.466Z,100439.16
2023-03-19T08:18:52.613Z,100430.34
2023-03-19T08:22:54.288Z,100434.91
2023-03-19T08:26:56.305Z,100435.91
2023-03-19T08:30:58.001Z,100442.16
2023-03-19T08:35:00.366Z,100441.75
2023-03-19T08:39:02.008Z,100444.72
2023-03-19T08:43:04.051Z,100452.72
2023-03-19T08:47:05.884Z,100453.06
2023-03-19T08:51:07.445Z,100443.16
2023-03-19T08:55:09.830Z,100445.81
2023-03-19T08:59:11.421Z,100452.19
2023-03-19T09:03:13.428Z,100441.28
2023-03-19T09:07:18.236Z,100439.72
2023-03-19T09:11:19.842Z,100444.06
2023-03-19T09:15:21.436Z,100457.00
2023-03-19T09:19:23.687Z,100447.47
2023-03-19T09:23:25.370Z,100456.03
2023-03-19T09:27:27.280Z,100459.53
2023-03-19T09:31:29.869Z,100457.69
2023-03-19T09:35:32.827Z,100460.09
2023-03-19T09:39:34.946Z,100458.56
2023-03-19T09:44:05.242Z,100463.22
2023-03-19T09:48:14.465Z,100461.91
2023-03-19T09:52:41.390Z,100463.56
2023-03-19T09:56:43.024Z,100465.91
2023-03-19T10:00:51.263Z,100455.94
2023-03-19T10:05:11.270Z,100453.06
2023-03-19T10:09:38.973Z,100463.25
2023-03-19T10:14:02.157Z,100458.03
2023-03-19T10:18:06.012Z,100461.88
2023-03-19T10:22:16.727Z,100458.91
2023-03-19T10:26:20.494Z,100454.91
2023-03-19T10:30:22.118Z,100448.00
2023-03-19T10:34:31.203Z,100441.88
2023-03-19T10:38:33.583Z,100439.19
2023-03-19T10:42:53.830Z,100440.81
2023-03-19T10:47:00.300Z,100433.13
2023-03-19T10:51:05.549Z,100430.72
2023-03-19T10:55:14.365Z,100431.81
2023-03-19T10:59:31.010Z,100430.31
2023-03-19T11:03:49.816Z,100423.84
2023-03-19T11:07:56.839Z,100414.75
2023-03-19T11:12:16.970Z,100419.25
2023-03-19T11:16:18.854Z,100415.88
2023-03-19T11:20:32.494Z,100414.25
2023-03-19T11:24:38.434Z,100409.19
2023-03-19T11:28:42.794Z,100411.00
2023-03-19T11:33:18.147Z,100408.41
2023-03-19T11:37:22.818Z,100409.13
2023-03-19T11:41:37.157Z,100408.25
2023-03-19T11:46:06.792Z,100413.31
2023-03-19T11:50:27.086Z,100408.13
2023-03-19T11:54:47.541Z,100404.66
2023-03-19T11:58:52.157Z,100399.56
2023-03-19T12:03:16.239Z,100403.09
2023-03-19T12:07:56.292Z,100398.84
2023-03-19T12:12:26.621Z,100391.06
2023-03-19T12:16:45.779Z,100397.06
2023-03-19T12:21:15.830Z,100399.59
2023-03-19T12:25:37.947Z,100394.34
2023-03-19T12:29:53.317Z,100389.97
2023-03-19T12:34:16.949Z,100394.22
2023-03-19T12:38:51.641Z,100396.59
2023-03-19T12:42:58.041Z,100410.31
2023-03-19T12:47:05.911Z,100400.88
2023-03-19T12:51:11.813Z,100398.31
2023-03-19T12:55:19.215Z,100411.25
2023-03-19T12:59:29.892Z,100417.16
2023-03-19T13:04:03.315Z,100423.72
2023-03-19T13:08:20.594Z,100422.44
2023-03-19T13:12:30.760Z,100425.81
2023-03-19T13:16:58.916Z,100430.78
2023-03-19T13:21:19.020Z,100427.16
2023-03-19T13:25:25.612Z,100433.28
2023-03-19T13:29:30.260Z,100435.00
2023-03-19T13:33:35.062Z,100437.53
2023-03-19T13:37:42.424Z,100426.88
2023-03-19T13:41:43.965Z,100433.69
2023-03-19T13:45:45.692Z,100438.97
2023-03-19T13:50:10.981Z,100440.84
2023-03-19T13:54:12.826Z,100437.44
2023-03-19T13:58:48.303Z,100439.41
2023-03-19T14:02:53.601Z,100431.06
2023-03-19T14:07:16.584Z,100430.13
2023-03-19T14:11:28.773Z,100438.66
2023-03-19T14:15:30.901Z,100428.34
2023-03-19T14:19:41.094Z,100431.84
2023-03-19T14:23:53.043Z,100432.00
2023-03-19T14:27:59.283Z,100435.69
2023-03-19T14:32:08.603Z,100423.88
2023-03-19T14:36:16.398Z,100419.69
2023-03-19T14:40:37.274Z,100416.34
2023-03-19T14:45:06.616Z,100418.91
2023-03-19T14:49:34.805Z,100421.16
2023-03-19T14:53:46.356Z,100414.84
2023-03-19T14:57:48.195Z,100416.63
2023-03-19T15:01:52.570Z,100406.56
2023-03-19T15:05:58.835Z,100388.00
2023-03-19T15:10:06.316Z,100391.75
2023-03-19T15:14:28.359Z,100400.63
2023-03-19T15:18:29.967Z,100391.19
2023-03-19T15:22:34.324Z,100386.88
2023-03-19T15:26:37.408Z,100396.50
2023-03-19T15:30:52.224Z,100382.69
2023-03-19T15:34:57.026Z,100383.53
2023-03-19T15:39:04.076Z,100388.75
2023-03-19T15:43:06.022Z,100387.03
2023-03-19T15:47:13.830Z,100385.22
2023-03-19T15:51:17.667Z,100382.66
2023-03-19T15:55:21.305Z,100387.88
2023-03-19T15:59:26.583Z,100390.47
2023-03-19T16:03:37.822Z,100394.78
2023-03-19T16:07:43.600Z,100408.44
2023-03-19T16:11:46.325Z,100409.13
2023-03-19T16:15:56.933Z,100408.91
2023-03-19T16:20:02.322Z,100426.69
2023-03-19T16:24:31.591Z,100421.19
2023-03-19T16:28:46.593Z,100425.94
2023-03-19T16:33:02.563Z,100442.91
2023-03-19T16:37:24.099Z,100446.25
2023-03-19T16:41:33.832Z,100453.97
2023-03-19T16:45:35.785Z,100456.47
2023-03-19T16:49:38.217Z,100459.75
2023-03-19T16:53:40.422Z,100465.69
2023-03-19T16:57:42.156Z,100468.91
2023-03-19T17:01:43.756Z,100485.94
2023-03-19T17:05:47.185Z,100492.41
2023-03-19T17:09:48.706Z,100497.31
2023-03-19T17:13:50.658Z,100508.16
2023-03-19T17:17:52.378Z,100515.91
2023-03-19T17:21:59.275Z,100517.56
2023-03-19T17:26:03.049Z,100524.31
2023-03-19T17:30:05.125Z,100517.25
2023-03-19T17:34:12.467Z,100532.59
2023-03-19T17:38:17.371Z,100534.13
2023-03-19T17:42:22.852Z,100527.63
2023-03-19T17:46:27.359Z,100533.44
2023-03-19T17:50:31.360Z,100547.81
2023-03-19T17:54:32.929Z,100557.25
2023-03-19T17:58:35.165Z,100556.28
2023-03-19T18:02:37.793Z,100562.91
2023-03-19T18:06:44.362Z,100563.44
2023-03-19T18:10:46.375Z,100575.13
2023-03-19T18:14:47.997Z,100572.19
2023-03-19T18:18:50.902Z,100580.50
2023-03-19T18:22:52.560Z,100584.63
2023-03-19T18:26:54.165Z,100591.38
2023-03-19T18:30:55.934Z,100591.16
2023-03-19T18:34:57.640Z,100594.44
2023-03-19T18:38:59.642Z,100594.25
2023-03-19T18:43:01.824Z,100597.50
2023-03-19T18:47:03.488Z,100599.03
2023-03-19T18:51:05.201Z,100598.03
2023-03-19T18:55:06.977Z,100606.50
2023-03-19T18:59:21.554Z,100615.00
2023-03-19T19:03:28.490Z,100612.25
2023-03-19T19:07:30.245Z,100611.16
2023-03-19T19:11:31.760Z,100618.63
2023-03-19T19:15:35.525Z,100615.91
2023-03-19T19:19:37.144Z,100621.72
2023-03-19T19:23:38.916Z,100630.94
2023-03-19T19:27:40.623Z,100635.13
2023-03-19T19:31:42.318Z,100641.81
2023-03-19T19:35:44.021Z,100636.50
2023-03-19T19:39:46.409Z,100638.75
2023-03-19T19:43:49.655Z,100656.56
2023-03-19T19:47:51.264Z,100670.94
2023-03-19T19:51:52.838Z,100665.63
2023-03-19T19:55:54.453Z,100675.81
2023-03-19T19:59:56.226Z,100671.44
2023-03-19T20:03:58.519Z,100673.09
2023-03-19T20:08:01.504Z,100678.13
2023-03-19T20:12:03.735Z,100689.91
2023-03-19T20:16:05.596Z,100690.59
2023-03-19T20:20:15.848Z,100698.16
2023-03-19T20:24:18.403Z,100710.88
2023-03-19T20:28:26.250Z,100708.16
2023-03-19T20:32:38.397Z,100713.19
2023-03-19T20:36:40.003Z,100711.31
2023-03-19T20:40:52.056Z,100714.44
2023-03-19T20:44:58.226Z,100721.00
2023-03-19T20:49:01.377Z,100736.25
2023-03-19T20:53:03.656Z,100744.63
2023-03-19T20:57:05.756Z,100752.19
2023-03-19T21:01:07.360Z,100752.94
2023-03-19T21:05:13.239Z,100760.47
2023-03-19T21:09:14.789Z,100756.84
2023-03-19T21:13:18.124Z,100763.63
2023-03-19T21:17:20.026Z,100770.41
2023-03-19T21:21:36.293Z,100769.41
2023-03-19T21:25:38.040Z,100781.19
2023-03-19T21:29:39.772Z,100782.81
2023-03-19T21:33:43.287Z,100790.09
2023-03-19T21:37:46.018Z,100794.03
2023-03-19T21:41:48.202Z,100789.66
2023-03-19T21:45:51.420Z,100791.47
2023-03-19T21:49:53.014Z,100790.94
2023-03-19T21:53:54.903Z,100794.88
2023-03-19T21:57:57.487Z,100790.16
2023-03-19T22:01:59.438Z,100800.00
2023-03-19T22:06:00.993Z,100803.63
2023-03-19T22:10:02.603Z,100810.00
2023-03-19T22:14:26.778Z,100804.28
2023-03-19T22:18:28.654Z,100813.81
2023-03-19T22:22:32.252Z,100818.28
2023-03-19T22:26:36.248Z,100806.44
2023-03-19T22:30:39.159Z,100806.44
2023-03-19T22:34:40.859Z,100809.84
2023-03-19T22:38:46.764Z,100811.56
2023-03-19T22:42:49.050Z,100811.56
2023-03-19T22:46:50.644Z,100811.63
2023-03-19T22:50:52.275Z,100817.63
2023-03-19T22:54:53.919Z,100811.63
2023-03-19T22:58:56.561Z,100816.78
2023-03-19T23:03:00.698Z,100802.22
2023-03-19T23:07:02.235Z,100805.47
2023-03-19T23:11:03.834Z,100797.66
2023-03-19T23:15:06.046Z,100795.84
2023-03-19T23:19:14.709Z,100800.97
2023-03-19T23:23:17.639Z,100800.13
2023-03-19T23:27:26.344Z,100794.03
2023-03-19T23:31:28.622Z,100799.19
2023-03-19T23:35:31.134Z,100797.47
2023-03-19T23:39:33.398Z,100800.78
2023-03-19T23:43:35.318Z,100807.59
2023-03-19T23:47:36.894Z,100805.91
2023-03-19T23:51:38.537Z,100811.97
2023-03-19T23:55:40.276Z,100812.78
2023-03-19T23:59:43.814Z,100814.41
